createdAt,value
2022-09-04T00:00:19.159Z,8.8
2022-09-04T00:05:25.332Z,9.5
2022-09-04T00:10:31.421Z,11.8
2022-09-04T00:15:20.422Z,14.6
2022-09-04T00:20:26.496Z,16.5
2022-09-04T00:25:32.650Z,22.1
2022-09-04T00:30:21.355Z,20.9
2022-09-04T00:35:27.909Z,15.7
2022-09-04T00:40:16.542Z,38.6
2022-09-04T00:45:22.591Z,33.8
2022-09-04T00:50:28.586Z,35.2
2022-09-04T00:55:17.654Z,43.6
2022-09-04T01:00:23.811Z,52.4
2022-09-04T01:05:29.118Z,42.7
2022-09-04T01:10:18.209Z,36.4
2022-09-04T01:15:24.232Z,30.8
2022-09-04T01:20:30.320Z,18.1
2022-09-04T01:25:19.355Z,14.9
2022-09-04T01:30:25.274Z,25.8
2022-09-04T01:35:31.180Z,16.9
2022-09-04T01:40:20.231Z,23.6
2022-09-04T01:45:26.272Z,20.0
2022-09-04T01:50:32.356Z,18.3
2022-09-04T01:55:21.417Z,19.0
2022-09-04T02:00:27.440Z,33.6
2022-09-04T02:05:15.562Z,19.3
2022-09-04T02:10:21.647Z,14.6
2022-09-04T02:15:27.672Z,20.5
2022-09-04T02:20:16.753Z,15.7
2022-09-04T02:25:22.827Z,14.0
2022-09-04T02:30:28.691Z,14.4
2022-09-04T02:35:17.580Z,13.0
2022-09-04T02:40:23.740Z,13.5
2022-09-04T02:45:29.771Z,17.8
2022-09-04T02:50:18.802Z,16.1
2022-09-04T02:55:24.832Z,13.2
2022-09-04T03:00:31.033Z,12.5
2022-09-04T03:05:19.983Z,11.5
2022-09-04T03:10:26.066Z,12.5
2022-09-04T03:15:32.169Z,14.4
2022-09-04T03:20:21.210Z,13.6
2022-09-04T03:25:27.261Z,19.2
2022-09-04T03:30:16.174Z,20.6
2022-09-04T03:35:22.572Z,17.5
2022-09-04T03:40:28.347Z,16.4
2022-09-04T03:45:17.370Z,18.2
2022-09-04T03:50:23.530Z,23.7
2022-09-04T03:55:29.512Z,22.1
2022-09-04T04:00:18.520Z,23.5
2022-09-04T04:05:23.713Z,22.8
2022-09-04T04:10:29.766Z,28.8
2022-09-04T04:15:18.805Z,28.4
2022-09-04T04:20:24.882Z,24.6
2022-09-04T04:25:30.928Z,27.5
2022-09-04T04:30:19.701Z,25.8
2022-09-04T04:35:25.957Z,30.6
2022-09-04T04:40:31.904Z,27.4
2022-09-04T04:45:20.876Z,25.6
2022-09-04T04:50:26.957Z,28.4
2022-09-04T04:55:16.032Z,29.4
2022-09-04T05:00:27.338Z,25.6
2022-09-04T05:05:28.193Z,27.7
2022-09-04T05:10:17.264Z,28.9
2022-09-04T05:15:23.305Z,28.7
2022-09-04T05:20:29.406Z,28.1
2022-09-04T05:25:18.514Z,29.7
2022-09-04T05:30:24.275Z,29.6
2022-09-04T05:35:35.191Z,27.2
2022-09-04T05:40:19.412Z,27.7
2022-09-04T05:45:25.461Z,31.7
2022-09-04T05:50:31.579Z,29.3
2022-09-04T05:55:20.605Z,32.0
2022-09-04T06:00:26.623Z,29.7
2022-09-04T06:05:31.840Z,32.1
2022-09-04T06:10:20.775Z,34.5
2022-09-04T06:15:26.872Z,36.5
2022-09-04T06:20:15.967Z,33.9
2022-09-04T06:25:22.022Z,96.7
2022-09-04T06:30:28.142Z,112.6
2022-09-04T06:35:17.172Z,35.0
2022-09-04T06:40:23.326Z,26.2
2022-09-04T06:45:29.255Z,32.3
2022-09-04T06:50:18.309Z,28.5
2022-09-04T06:55:24.376Z,23.8
2022-09-04T07:00:30.508Z,24.9
2022-09-04T07:05:18.568Z,24.1
2022-09-04T07:10:24.621Z,22.6
2022-09-04T07:15:30.749Z,30.8
2022-09-04T07:20:19.706Z,21.6
2022-09-04T07:25:25.799Z,22.0
2022-09-04T07:30:31.618Z,19.8
2022-09-04T07:35:20.624Z,22.8
2022-09-04T07:40:27.839Z,23.0
2022-09-04T07:45:15.717Z,20.3
2022-09-04T07:50:21.773Z,22.2
2022-09-04T07:55:27.916Z,22.7
2022-09-04T08:00:16.924Z,22.3
2022-09-04T08:05:23.152Z,55.5
2022-09-04T08:10:29.230Z,26.4
2022-09-04T08:15:18.267Z,24.3
2022-09-04T08:20:24.361Z,20.8
2022-09-04T08:25:30.385Z,20.5
2022-09-04T08:30:19.432Z,18.1
2022-09-04T08:35:25.365Z,19.2
2022-09-04T08:40:31.535Z,17.2
2022-09-04T08:45:20.459Z,18.2
2022-09-04T08:50:26.535Z,17.8
2022-09-04T08:55:32.694Z,18.1
2022-09-04T09:00:21.641Z,19.3
2022-09-04T09:05:26.807Z,18.2
2022-09-04T09:10:15.867Z,18.8
2022-09-04T09:15:21.981Z,16.9
2022-09-04T09:20:28.053Z,19.5
2022-09-04T09:25:17.025Z,19.2
2022-09-04T09:30:23.443Z,17.8
2022-09-04T09:35:29.044Z,17.2
2022-09-04T09:40:18.099Z,15.8
2022-09-04T09:45:24.137Z,15.0
2022-09-04T09:50:30.161Z,13.8
2022-09-04T09:55:19.249Z,13.7
2022-09-04T10:00:25.311Z,14.7
2022-09-04T10:05:31.471Z,17.0
2022-09-04T10:10:20.503Z,15.7
2022-09-04T10:15:26.536Z,15.8
2022-09-04T10:20:32.558Z,15.2
2022-09-04T10:25:21.691Z,14.6
2022-09-04T10:30:27.685Z,15.0
2022-09-04T10:35:16.623Z,13.6
2022-09-04T10:40:23.236Z,11.3
2022-09-04T10:45:28.878Z,14.0
2022-09-04T10:50:17.842Z,11.2
2022-09-04T10:55:23.853Z,11.4
2022-09-04T11:00:29.910Z,12.2
2022-09-04T11:05:19.097Z,11.6
2022-09-04T11:10:25.185Z,10.8
2022-09-04T11:15:31.255Z,10.3
2022-09-04T11:20:20.198Z,11.9
2022-09-04T11:25:26.350Z,9.8
2022-09-04T11:30:32.217Z,8.8
2022-09-04T11:35:21.252Z,9.0
2022-09-04T11:40:27.461Z,9.2
2022-09-04T11:45:16.363Z,10.1
2022-09-04T11:50:22.635Z,8.7
2022-09-04T11:55:28.514Z,8.3
2022-09-04T12:00:17.562Z,9.5
2022-09-04T12:05:22.663Z,8.1
2022-09-04T12:10:28.779Z,7.4
2022-09-04T12:15:17.764Z,9.2
2022-09-04T12:20:23.849Z,10.8
2022-09-04T12:25:29.927Z,7.9
2022-09-04T12:30:18.933Z,7.2
2022-09-04T12:35:28.536Z,7.8
2022-09-04T12:40:31.007Z,7.3
2022-09-04T12:45:20.086Z,7.5
2022-09-04T12:50:26.240Z,6.8
2022-09-04T12:55:33.516Z,7.8
2022-09-04T13:00:21.213Z,7.5
2022-09-04T13:05:26.896Z,6.8
2022-09-04T13:10:15.921Z,6.9
2022-09-04T13:15:21.959Z,6.2
2022-09-04T13:20:28.036Z,5.9
2022-09-04T13:25:17.151Z,6.2
2022-09-04T13:30:23.363Z,6.3
2022-09-04T13:35:29.484Z,5.9
2022-09-04T13:40:18.467Z,5.4
2022-09-04T13:45:24.460Z,5.0
2022-09-04T13:50:31.190Z,5.2
2022-09-04T13:55:19.585Z,6.1
2022-09-04T14:00:25.806Z,6.0
2022-09-04T14:05:30.769Z,5.2
2022-09-04T14:10:20.096Z,5.4
2022-09-04T14:15:25.922Z,5.8
2022-09-04T14:20:31.915Z,5.5
2022-09-04T14:25:21.025Z,4.8
2022-09-04T14:30:26.884Z,5.5
2022-09-04T14:35:15.921Z,5.6
2022-09-04T14:40:21.992Z,5.9
2022-09-04T14:45:28.017Z,5.3
2022-09-04T14:50:17.046Z,4.7
2022-09-04T14:55:23.280Z,5.2
2022-09-04T15:00:29.203Z,5.5
2022-09-04T15:05:18.300Z,5.3
2022-09-04T15:10:24.426Z,4.4
2022-09-04T15:15:30.432Z,4.7
2022-09-04T15:20:19.477Z,4.4
2022-09-04T15:25:41.900Z,4.8
2022-09-04T15:30:32.259Z,6.4
2022-09-04T15:35:20.082Z,4.7
2022-09-04T15:40:26.136Z,8.4
2022-09-04T15:45:32.180Z,6.2
2022-09-04T15:50:21.214Z,4.8
2022-09-04T15:55:27.396Z,4.9
2022-09-04T16:00:16.447Z,4.9
2022-09-04T16:05:23.841Z,4.8
2022-09-04T16:10:27.619Z,5.5
2022-09-04T16:15:16.654Z,4.7
2022-09-04T16:20:22.684Z,5.8
2022-09-04T16:25:28.813Z,4.6
2022-09-04T16:30:17.736Z,4.7
2022-09-04T16:35:23.800Z,6.2
2022-09-04T16:40:29.845Z,4.8
2022-09-04T16:45:18.893Z,4.9
2022-09-04T16:50:24.997Z,5.9
2022-09-04T16:55:31.142Z,5.2
2022-09-04T17:00:20.094Z,5.2
2022-09-04T17:05:28.308Z,5.9
2022-09-04T17:10:36.122Z,7.2
2022-09-04T17:15:20.792Z,6.0
2022-09-04T17:20:38.401Z,6.0
2022-09-04T17:26:21.252Z,6.0
2022-09-04T17:29:05.064Z,6.0
2022-09-04T17:29:08.060Z,5.7
2022-09-04T17:29:08.417Z,5.7
2022-09-04T17:29:08.417Z,5.7
2022-09-04T17:30:28.898Z,6.2
2022-09-04T17:40:41.787Z,6.4
2022-09-04T17:40:43.032Z,6.4
2022-09-04T17:40:48.437Z,6.4
2022-09-04T17:40:53.765Z,6.4
2022-09-04T17:45:23.576Z,7.0
2022-09-04T17:50:29.633Z,5.8
2022-09-04T17:55:18.665Z,7.7
2022-09-04T18:00:24.773Z,7.6
2022-09-04T18:05:30.428Z,6.8
2022-09-04T18:10:18.908Z,6.1
2022-09-04T18:15:33.398Z,7.1
2022-09-04T18:20:31.036Z,6.0
2022-09-04T18:25:20.127Z,6.2
2022-09-04T18:34:12.542Z,6.7
2022-09-04T18:37:09.478Z,6.7
2022-09-04T18:37:17.608Z,6.4
2022-09-04T18:37:20.965Z,6.4
2022-09-04T18:37:23.988Z,6.7
2022-09-04T18:37:47.340Z,6.4
2022-09-04T18:40:36.076Z,7.7
2022-09-04T18:44:56.692Z,7.7
2022-09-04T18:50:22.475Z,7.7
2022-09-04T18:50:45.735Z,6.9
2022-09-04T18:50:45.735Z,6.9
2022-09-04T18:50:47.148Z,7.7
2022-09-04T18:50:51.445Z,6.9
2022-09-04T18:55:22.134Z,7.6
2022-09-04T19:00:28.188Z,8.2
2022-09-04T19:05:17.336Z,6.4
2022-09-04T19:10:23.355Z,6.8
2022-09-04T19:15:37.030Z,6.9
2022-09-04T19:20:18.439Z,8.1
2022-09-04T19:25:24.599Z,6.8
2022-09-04T19:30:30.047Z,7.3
2022-09-04T19:35:19.165Z,10.8
2022-09-04T19:45:59.054Z,6.6
2022-09-04T19:46:02.226Z,6.6
2022-09-04T19:46:05.152Z,6.6
2022-09-04T19:46:13.884Z,6.9
2022-09-04T19:53:18.987Z,6.6
2022-09-04T19:53:24.517Z,6.6
2022-09-04T19:53:30.285Z,6.6
2022-09-04T19:55:26.377Z,7.6
2022-09-04T20:00:43.777Z,6.4
2022-09-04T20:05:21.034Z,6.3
2022-09-04T20:10:27.018Z,7.6
2022-09-04T20:15:16.108Z,7.4
2022-09-04T20:20:22.125Z,7.6
2022-09-04T20:25:28.217Z,7.5
2022-09-04T20:30:16.920Z,7.0
2022-09-04T20:35:33.112Z,7.2
2022-09-04T20:40:29.016Z,7.0
2022-09-04T20:46:42.207Z,7.0
2022-09-04T20:52:21.822Z,7.0
2022-09-04T20:52:42.143Z,7.0
2022-09-04T20:52:50.228Z,7.8
2022-09-04T20:52:56.684Z,7.8
2022-09-04T20:52:57.623Z,7.8
2022-09-04T20:55:30.242Z,7.7
2022-09-04T21:03:17.136Z,7.3
2022-09-04T21:03:19.146Z,7.3
2022-09-04T21:03:21.879Z,7.3
2022-09-04T21:05:24.993Z,7.6
2022-09-04T21:10:30.881Z,6.8
2022-09-04T21:15:19.947Z,7.1
2022-09-04T21:20:25.961Z,8.1
2022-09-04T21:25:32.095Z,9.2
2022-09-04T21:30:25.855Z,7.6
2022-09-04T21:35:26.521Z,7.9
2022-09-04T21:40:21.624Z,7.3
2022-09-04T21:45:21.652Z,8.1
2022-09-04T21:50:28.410Z,8.6
2022-09-04T21:56:38.128Z,7.0
2022-09-04T21:59:49.308Z,7.0
2022-09-04T22:02:27.918Z,7.0
2022-09-04T22:02:37.306Z,7.3
2022-09-04T22:02:38.110Z,7.3
2022-09-04T22:05:29.395Z,9.2
2022-09-04T22:13:31.042Z,8.0
2022-09-04T22:13:38.743Z,8.0
2022-09-04T22:13:42.099Z,8.0
2022-09-04T22:15:25.048Z,9.8
2022-09-04T22:20:34.886Z,7.3
2022-09-04T22:25:19.499Z,7.7
2022-09-04T22:30:31.503Z,7.6
2022-09-04T22:35:35.700Z,7.9
2022-09-04T22:40:20.099Z,7.4
2022-09-04T22:45:26.181Z,7.6
2022-09-04T22:50:49.638Z,7.4
2022-09-04T22:55:38.932Z,8.7
2022-09-04T23:00:27.295Z,8.8
2022-09-04T23:05:15.895Z,9.3
2022-09-04T23:13:49.425Z,8.3
2022-09-04T23:13:53.898Z,8.3
2022-09-04T23:14:02.131Z,8.3
2022-09-04T23:15:28.016Z,8.2
2022-09-04T23:26:33.168Z,8.3
2022-09-04T23:26:35.125Z,8.3
2022-09-04T23:26:44.475Z,9.2
2022-09-04T23:26:45.672Z,9.2
2022-09-04T23:26:52.674Z,8.3
2022-09-04T23:30:29.225Z,8.2
2022-09-04T23:35:18.246Z,7.3
2022-09-04T23:40:24.371Z,7.7
2022-09-04T23:45:30.385Z,8.3
2022-09-04T23:50:19.462Z,6.5
2022-09-04T23:55:26.237Z,7.5
